Time;durP1;ratioP1;P1;durP2;ratioP2;P2;SDS_P1;SDS_P2;PMS_P1;PMS_P2;Temp;Humidity;BMP_temperature;BMP_pressure;BME280_temperature;BME280_humidity;BME280_pressure;Samples;Min_cycle;Max_cycle;Signal;HPM_P1;HPM_P2
2021/08/31 00:00:42;;;;;;;29.77;24.80;;;;;;;13.82;100.00;98786.52;1755033;81;20977;-66
2021/08/31 00:03:09;;;;;;;32.88;20.72;;;;;;;13.77;100.00;98783.89;1754985;81;21403;-66
2021/08/31 00:05:36;;;;;;;52.60;47.38;;;;;;;13.74;100.00;98784.46;1754957;81;21035;-66
2021/08/31 00:08:04;;;;;;;29.77;19.82;;;;;;;13.72;100.00;98789.37;1754854;80;21164;-65
2021/08/31 00:10:31;;;;;;;35.28;21.87;;;;;;;13.70;100.00;98790.20;1754741;81;20972;-66
2021/08/31 00:12:58;;;;;;;30.17;20.40;;;;;;;13.70;100.00;98802.34;1754400;81;21465;-65
2021/08/31 00:15:25;;;;;;;156.20;142.10;;;;;;;13.70;100.00;98806.38;1756416;81;20972;-66
2021/08/31 00:17:53;;;;;;;29.52;19.77;;;;;;;13.69;100.00;98804.77;1754864;81;21348;-67
2021/08/31 00:20:20;;;;;;;29.82;19.52;;;;;;;13.68;100.00;98797.23;1730467;81;21060;-67
2021/08/31 00:22:47;;;;;;;61.75;55.88;;;;;;;13.60;100.00;98804.64;1754653;81;21422;-66
2021/08/31 00:25:14;;;;;;;32.13;20.70;;;;;;;13.54;100.00;98809.83;1754277;81;20965;-65
2021/08/31 00:27:41;;;;;;;28.62;18.20;;;;;;;13.53;100.00;98802.05;1754818;81;20945;-66
2021/08/31 00:30:09;;;;;;;28.45;17.98;;;;;;;13.46;100.00;98802.41;1754865;81;21020;-66
2021/08/31 00:32:36;;;;;;;26.37;18.32;;;;;;;13.37;100.00;98806.84;1755204;81;21807;-66
2021/08/31 00:35:05;;;;;;;27.85;18.27;;;;;;;13.34;100.00;98810.91;1755312;81;21335;-66
2021/08/31 00:37:32;;;;;;;30.82;20.97;;;;;;;13.28;100.00;98808.05;1754362;81;20962;-65
2021/08/31 00:39:59;;;;;;;30.15;20.72;;;;;;;13.24;100.00;98813.16;1754787;81;20916;-66
2021/08/31 00:42:26;;;;;;;32.58;19.62;;;;;;;13.18;100.00;98817.03;1754903;81;21059;-66
2021/08/31 00:44:52;;;;;;;29.63;20.92;;;;;;;13.14;100.00;98814.64;1754879;81;21109;-66
2021/08/31 00:47:19;;;;;;;26.48;19.37;;;;;;;13.13;100.00;98813.05;1730953;81;20948;-66
2021/08/31 00:49:47;;;;;;;29.95;21.05;;;;;;;13.07;100.00;98823.62;1754145;81;20995;-67
2021/08/31 00:52:15;;;;;;;39.42;20.30;;;;;;;13.04;100.00;98824.20;1754601;81;20949;-67
2021/08/31 00:54:42;;;;;;;29.02;19.57;;;;;;;13.02;100.00;98816.95;1755033;81;20973;-67
2021/08/31 00:57:09;;;;;;;34.23;22.35;;;;;;;12.97;100.00;98817.81;1754481;81;21104;-67
2021/08/31 00:59:36;;;;;;;31.57;21.40;;;;;;;12.93;100.00;98818.11;1756746;81;21414;-67
2021/08/31 01:02:04;;;;;;;43.45;22.65;;;;;;;12.90;100.00;98817.34;1759784;81;20925;-67
2021/08/31 01:04:32;;;;;;;30.90;21.17;;;;;;;12.86;100.00;98819.83;1754936;81;21423;-67
2021/08/31 01:06:59;;;;;;;36.60;23.05;;;;;;;12.80;100.00;98808.04;1754389;80;21016;-67
2021/08/31 01:09:27;;;;;;;35.47;22.57;;;;;;;12.76;100.00;98813.18;1755017;81;21144;-67
2021/08/31 01:11:56;;;;;;;31.50;21.87;;;;;;;12.73;100.00;98817.00;1754599;81;20833;-66
2021/08/31 01:14:24;;;;;;;32.83;21.57;;;;;;;12.67;100.00;98811.42;1755030;81;21414;-67
2021/08/31 01:16:51;;;;;;;32.98;22.32;;;;;;;12.60;100.00;98801.78;1754883;81;20949;-67
2021/08/31 01:19:26;;;;;;;35.45;23.00;;;;;;;12.59;100.00;98806.92;1754231;81;21063;-66
2021/08/31 01:21:53;;;;;;;33.92;23.47;;;;;;;12.53;100.00;98805.36;1733050;82;21607;-66
2021/08/31 01:24:20;;;;;;;34.33;23.70;;;;;;;12.49;100.00;98807.55;1733271;81;20953;-65
2021/08/31 01:26:48;;;;;;;35.28;22.48;;;;;;;12.45;100.00;98812.72;1733549;82;21447;-65
2021/08/31 01:29:15;;;;;;;30.85;23.50;;;;;;;12.44;100.00;98810.58;1733665;81;21508;-66
2021/08/31 01:31:43;;;;;;;36.23;23.83;;;;;;;12.41;100.00;98809.77;1733355;81;20929;-66
2021/08/31 01:34:09;;;;;;;34.98;22.35;;;;;;;12.40;100.00;98814.11;1732908;82;21129;-65
2021/08/31 01:36:36;;;;;;;40.78;26.68;;;;;;;12.35;100.00;98806.88;1733324;82;20977;-65
2021/08/31 01:39:05;;;;;;;35.52;23.05;;;;;;;12.36;100.00;98810.38;1733430;82;21012;-65
2021/08/31 01:41:32;;;;;;;36.65;25.45;;;;;;;12.34;100.00;98816.02;1733486;82;20929;-65
2021/08/31 01:43:58;;;;;;;46.30;24.45;;;;;;;12.36;100.00;98822.48;1733530;82;20973;-67
2021/08/31 01:46:25;;;;;;;36.23;24.98;;;;;;;12.41;100.00;98823.23;1733339;82;21428;-66
2021/08/31 01:48:53;;;;;;;42.75;24.90;;;;;;;12.43;100.00;98814.88;1733429;82;21422;-66
2021/08/31 01:51:19;;;;;;;37.60;24.43;;;;;;;12.49;100.00;98815.08;1733268;82;20932;-67
2021/08/31 01:53:46;;;;;;;37.50;25.85;;;;;;;12.45;100.00;98816.75;1733451;82;21024;-66
2021/08/31 01:56:13;;;;;;;36.42;25.32;;;;;;;12.48;100.00;98814.83;1732866;82;20961;-66
2021/08/31 01:58:40;;;;;;;38.60;26.73;;;;;;;12.47;100.00;98805.16;1733133;82;21079;-66
2021/08/31 02:01:07;;;;;;;41.63;27.30;;;;;;;12.48;100.00;98810.79;1733413;82;20850;-66
2021/08/31 02:03:34;;;;;;;40.83;23.98;;;;;;;12.48;100.00;98810.00;1732500;82;20978;-65
2021/08/31 02:06:02;;;;;;;36.93;25.33;;;;;;;12.46;100.00;98796.81;1714505;82;21430;-65
2021/08/31 02:08:30;;;;;;;35.63;24.67;;;;;;;12.46;100.00;98802.20;1733579;81;21394;-65
2021/08/31 02:10:56;;;;;;;36.03;24.75;;;;;;;12.48;100.00;98809.45;1733475;82;21038;-64
2021/08/31 02:13:25;;;;;;;40.25;27.22;;;;;;;12.48;100.00;98811.34;1733444;82;21414;-66
2021/08/31 02:15:53;;;;;;;40.50;27.60;;;;;;;12.50;100.00;98815.36;1733347;82;24999;-65
2021/08/31 02:18:20;;;;;;;35.03;25.35;;;;;;;12.51;100.00;98806.18;1733483;82;21454;-66
2021/08/31 02:20:48;;;;;;;41.35;26.55;;;;;;;12.54;100.00;98808.33;1733628;81;21375;-67
2021/08/31 02:23:15;;;;;;;41.70;27.75;;;;;;;12.52;100.00;98806.45;1733374;82;21580;-66
2021/08/31 02:25:42;;;;;;;34.53;24.70;;;;;;;12.54;100.00;98804.29;1714499;82;20984;-66
2021/08/31 02:28:09;;;;;;;39.53;26.97;;;;;;;12.53;100.00;98801.31;1733048;82;21008;-66
2021/08/31 02:30:36;;;;;;;34.15;25.20;;;;;;;12.58;100.00;98804.50;1733666;81;21337;-65
2021/08/31 02:33:03;;;;;;;42.70;25.50;;;;;;;12.59;100.00;98805.58;1733237;81;20957;-66
2021/08/31 02:35:32;;;;;;;31.05;23.00;;;;;;;12.59;100.00;98809.62;1733862;82;21112;-65
2021/08/31 02:38:00;;;;;;;34.78;24.70;;;;;;;12.61;100.00;98813.35;1733609;82;20924;-65
2021/08/31 02:40:27;;;;;;;35.43;25.00;;;;;;;12.65;100.00;98821.13;1733693;82;21437;-64
2021/08/31 02:42:54;;;;;;;37.13;24.52;;;;;;;12.68;100.00;98817.06;1733217;82;22147;-65
2021/08/31 02:45:21;;;;;;;30.52;23.32;;;;;;;12.65;100.00;98823.27;1733382;82;20905;-67
2021/08/31 02:47:48;;;;;;;34.08;24.02;;;;;;;12.68;100.00;98819.75;1733562;82;21423;-65
2021/08/31 02:50:15;;;;;;;34.98;23.42;;;;;;;12.69;100.00;98826.73;1732873;81;21063;-66
2021/08/31 02:52:44;;;;;;;36.45;23.98;;;;;;;12.70;100.00;98820.27;1733065;82;20973;-66
2021/08/31 02:55:12;;;;;;;32.65;23.05;;;;;;;12.73;100.00;98821.84;1733359;81;20977;-66
2021/08/31 02:57:39;;;;;;;33.58;21.80;;;;;;;12.74;100.00;98828.84;1733603;81;20985;-66
2021/08/31 03:00:09;;;;;;;29.77;21.30;;;;;;;12.74;100.00;98829.36;1733249;81;21572;-67
2021/08/31 03:03:03;;;;;;;30.57;22.17;;;;;;;12.78;100.00;98835.80;1733497;81;21494;-66
2021/08/31 03:05:30;;;;;;;39.00;23.18;;;;;;;12.78;100.00;98827.72;1733367;81;20988;-66
2021/08/31 03:07:56;;;;;;;33.75;24.07;;;;;;;12.78;100.00;98832.55;1733450;81;20990;-66
2021/08/31 03:10:23;;;;;;;33.42;22.13;;;;;;;12.76;100.00;98827.99;1733522;82;21426;-67
2021/08/31 03:12:50;;;;;;;30.08;22.80;;;;;;;12.77;100.00;98832.86;1715014;82;21182;-67
2021/08/31 03:15:17;;;;;;;33.48;22.67;;;;;;;12.77;100.00;98827.47;1714585;82;20979;-66
2021/08/31 03:17:44;;;;;;;34.65;24.23;;;;;;;12.76;100.00;98830.69;1733111;82;20904;-65
2021/08/31 03:20:11;;;;;;;35.78;22.58;;;;;;;12.77;100.00;98840.94;1736061;81;21363;-66
2021/08/31 03:22:38;;;;;;;33.38;23.32;;;;;;;12.76;100.00;98837.41;1754848;81;20987;-66
2021/08/31 03:25:07;;;;;;;31.07;21.30;;;;;;;12.76;100.00;98846.05;1731090;81;21435;-66
2021/08/31 03:27:35;;;;;;;31.20;22.90;;;;;;;12.75;100.00;98843.11;1754736;81;20928;-65
2021/08/31 03:30:04;;;;;;;38.63;25.35;;;;;;;12.77;100.00;98847.67;1730585;81;20917;-65
2021/08/31 03:32:31;;;;;;;37.50;23.55;;;;;;;12.76;100.00;98836.06;1756427;81;20889;-66
2021/08/31 03:34:57;;;;;;;34.30;24.72;;;;;;;12.76;100.00;98837.97;1754944;81;20817;-65
2021/08/31 03:37:24;;;;;;;33.42;24.87;;;;;;;12.76;100.00;98841.45;1731229;81;21038;-65
2021/08/31 03:39:51;;;;;;;34.23;21.80;;;;;;;12.76;100.00;98852.23;1754608;81;20913;-66
2021/08/31 03:42:18;;;;;;;29.50;23.60;;;;;;;12.77;100.00;98846.32;1730826;81;20985;-66
2021/08/31 03:44:44;;;;;;;29.20;20.60;;;;;;;12.77;100.00;98851.16;1730459;81;21454;-66
2021/08/31 03:47:11;;;;;;;33.33;24.12;;;;;;;12.77;100.00;98851.16;1731048;81;21533;-65
2021/08/31 03:49:38;;;;;;;33.45;23.75;;;;;;;12.79;100.00;98853.58;1754693;81;21764;-66
2021/08/31 03:52:07;;;;;;;32.03;24.35;;;;;;;12.80;100.00;98856.52;1754763;81;21442;-66
2021/08/31 03:54:33;;;;;;;32.38;23.15;;;;;;;12.84;100.00;98865.64;1731146;81;20969;-65
2021/08/31 03:57:00;;;;;;;30.27;23.55;;;;;;;12.83;100.00;98859.42;1731180;81;21457;-65
2021/08/31 03:59:28;;;;;;;27.95;21.07;;;;;;;12.82;100.00;98869.16;1731546;81;26937;-65
2021/08/31 04:01:55;;;;;;;27.55;21.30;;;;;;;12.82;100.00;98867.27;1754822;81;21106;-65
2021/08/31 04:04:22;;;;;;;27.27;21.48;;;;;;;12.86;100.00;98864.78;1754986;81;21360;-66
2021/08/31 04:06:50;;;;;;;32.50;22.45;;;;;;;12.86;100.00;98876.38;1754903;80;21401;-65
2021/08/31 04:09:17;;;;;;;34.35;23.95;;;;;;;12.90;100.00;98883.34;1731134;81;20948;-64
2021/08/31 04:11:44;;;;;;;29.32;20.97;;;;;;;12.91;100.00;98884.96;1754749;81;21386;-65
2021/08/31 04:14:10;;;;;;;29.98;22.32;;;;;;;12.94;100.00;98895.70;1730342;81;21187;-65
2021/08/31 04:16:37;;;;;;;29.32;22.55;;;;;;;12.95;100.00;98893.26;1754285;81;20948;-64
2021/08/31 04:19:05;;;;;;;31.02;22.10;;;;;;;12.93;100.00;98894.88;1754733;81;20869;-65
2021/08/31 04:21:32;;;;;;;28.95;20.55;;;;;;;12.92;100.00;98894.63;1742615;81;21448;-65
2021/08/31 04:24:00;;;;;;;33.38;22.15;;;;;;;12.93;100.00;98897.58;1714931;82;20957;-67
2021/08/31 04:26:27;;;;;;;29.60;22.62;;;;;;;12.94;100.00;98896.50;1733098;81;20989;-66
2021/08/31 04:28:54;;;;;;;34.10;20.60;;;;;;;12.99;100.00;98901.84;1733171;82;20988;-66
2021/08/31 04:31:22;;;;;;;32.58;22.85;;;;;;;13.02;100.00;98895.87;1733347;82;21458;-66
2021/08/31 04:33:50;;;;;;;31.65;22.22;;;;;;;13.09;100.00;98897.68;1733379;81;20932;-66
2021/08/31 04:36:18;;;;;;;38.65;25.32;;;;;;;13.08;100.00;98894.73;1733506;82;21012;-66
2021/08/31 04:38:45;;;;;;;37.37;25.47;;;;;;;13.19;100.00;98902.16;1733622;82;21109;-66
2021/08/31 04:41:12;;;;;;;35.63;26.23;;;;;;;13.20;100.00;98901.61;1733316;81;20969;-66
2021/08/31 04:43:39;;;;;;;35.65;24.15;;;;;;;13.21;100.00;98901.88;1733471;82;20980;-67
2021/08/31 04:46:06;;;;;;;43.28;26.02;;;;;;;13.13;100.00;98903.31;1733429;82;21422;-67
2021/08/31 04:48:33;;;;;;;41.33;25.82;;;;;;;13.17;100.00;98906.23;1733482;82;20937;-66
2021/08/31 04:51:00;;;;;;;33.85;24.92;;;;;;;13.14;100.00;98904.91;1733313;82;21130;-67
2021/08/31 04:53:26;;;;;;;35.38;24.47;;;;;;;13.16;100.00;98894.66;1733386;82;21021;-66
2021/08/31 04:55:53;;;;;;;35.75;23.90;;;;;;;13.20;100.00;98895.66;1733307;82;20963;-66
2021/08/31 04:58:19;;;;;;;36.85;25.88;;;;;;;13.27;100.00;98892.66;1733631;82;21288;-65
2021/08/31 05:00:46;;;;;;;28.55;22.13;;;;;;;13.27;100.00;98892.11;1733159;81;20912;-65
2021/08/31 05:03:12;;;;;;;32.03;22.77;;;;;;;13.26;100.00;98898.58;1733544;82;21133;-64
2021/08/31 05:05:42;;;;;;;34.08;24.82;;;;;;;13.31;100.00;98898.30;1732274;82;20944;-65
2021/08/31 05:08:09;;;;;;;34.05;23.45;;;;;;;13.29;100.00;98904.76;1733420;81;20960;-64
2021/08/31 05:10:38;;;;;;;37.15;23.40;;;;;;;13.39;100.00;98907.88;1733550;82;20925;-65
2021/08/31 05:13:06;;;;;;;33.42;23.30;;;;;;;13.43;100.00;98908.92;1733306;82;26255;-66
2021/08/31 05:15:33;;;;;;;30.60;22.58;;;;;;;13.53;100.00;98905.85;1739590;81;21099;-66
2021/08/31 05:18:00;;;;;;;35.65;23.10;;;;;;;13.48;100.00;98897.28;1732374;81;20911;-66
2021/08/31 05:20:28;;;;;;;30.88;23.75;;;;;;;13.54;100.00;98900.16;1716796;83;21040;-67
2021/08/31 05:22:54;;;;;;;30.77;22.87;;;;;;;13.62;100.00;98904.09;1725907;82;20974;-66
2021/08/31 05:25:21;;;;;;;26.82;20.57;;;;;;;13.62;100.00;98910.31;1723405;81;20943;-67
2021/08/31 05:27:48;;;;;;;32.90;24.57;;;;;;;13.55;100.00;98908.52;1726637;81;21164;-66
2021/08/31 05:30:15;;;;;;;30.97;21.37;;;;;;;13.53;100.00;98917.44;1739713;81;20996;-65
2021/08/31 05:32:43;;;;;;;31.00;25.02;;;;;;;13.55;100.00;98917.95;1722607;83;20988;-67
2021/08/31 05:35:11;;;;;;;33.53;23.98;;;;;;;13.63;100.00;98912.45;1722964;83;20967;-66
2021/08/31 05:37:39;;;;;;;31.73;26.37;;;;;;;13.75;100.00;98911.49;1722722;83;20984;-65
2021/08/31 05:40:08;;;;;;;25.37;21.60;;;;;;;13.88;100.00;98908.06;1723094;83;21138;-66
2021/08/31 05:42:34;;;;;;;;;;;;;;;13.84;100.00;98917.02;1725792;83;20900;-66
2021/08/31 05:45:01;;;;;;;39.65;29.87;;;;;;;13.91;100.00;98910.20;1743819;81;20174;-66
2021/08/31 05:47:27;;;;;;;51.65;34.75;;;;;;;13.99;100.00;98907.39;1744333;81;20998;-66
2021/08/31 05:49:55;;;;;;;39.18;27.22;;;;;;;14.05;100.00;98912.16;1747318;81;21023;-66
2021/08/31 05:52:21;;;;;;;37.53;28.75;;;;;;;14.04;100.00;98907.87;1752290;81;21117;-65
2021/08/31 05:54:48;;;;;;;32.58;24.98;;;;;;;14.12;100.00;98905.30;1752871;81;21012;-66
2021/08/31 05:57:15;;;;;;;31.12;22.20;;;;;;;14.24;100.00;98900.01;1752704;81;20865;-67
2021/08/31 05:59:41;;;;;;;28.10;20.23;;;;;;;14.23;100.00;98904.58;1745835;81;20960;-68
2021/08/31 06:02:09;;;;;;;25.37;19.45;;;;;;;14.22;100.00;98906.24;1738909;81;20913;-65
2021/08/31 06:04:37;;;;;;;22.85;17.87;;;;;;;14.24;100.00;98904.85;1727899;81;21174;-66
2021/08/31 06:07:06;;;;;;;20.52;17.02;;;;;;;14.30;100.00;98895.56;1713368;81;21007;-66
2021/08/31 06:09:36;;;;;;;18.15;14.87;;;;;;;14.29;100.00;98898.02;1740229;81;21007;-66
2021/08/31 06:12:05;;;;;;;19.30;15.32;;;;;;;14.27;100.00;98890.77;1751330;82;21470;-66
2021/08/31 06:14:32;;;;;;;18.75;16.20;;;;;;;14.36;100.00;98894.41;1752750;81;20861;-65
2021/08/31 06:16:59;;;;;;;19.55;13.22;;;;;;;14.38;100.00;98902.22;1752887;81;21382;-67
2021/08/31 06:19:25;;;;;;;14.20;12.70;;;;;;;14.34;100.00;98903.89;1753326;81;20861;-66
2021/08/31 06:21:52;;;;;;;24.52;15.65;;;;;;;14.30;100.00;98912.31;1753059;81;20969;-66
2021/08/31 06:24:18;;;;;;;14.43;11.70;;;;;;;14.31;100.00;98916.64;1753278;81;20900;-66
2021/08/31 06:26:45;;;;;;;13.90;12.40;;;;;;;14.22;100.00;98915.14;1752946;81;20916;-65
2021/08/31 06:29:11;;;;;;;21.60;12.80;;;;;;;14.29;100.00;98917.47;1753396;81;21048;-67
2021/08/31 06:31:39;;;;;;;19.87;15.07;;;;;;;14.33;100.00;98919.30;1752485;81;20869;-67
2021/08/31 06:34:06;;;;;;;12.95;11.20;;;;;;;14.42;100.00;98918.61;1753074;81;20980;-66
2021/08/31 06:36:34;;;;;;;15.00;13.38;;;;;;;14.37;100.00;98912.75;1749216;81;21011;-65
2021/08/31 06:39:02;;;;;;;16.40;12.85;;;;;;;14.47;100.00;98911.23;1736145;81;20822;-66
2021/08/31 06:41:29;;;;;;;15.43;13.35;;;;;;;14.70;100.00;98918.17;1735806;82;21112;-65
2021/08/31 06:43:55;;;;;;;11.22;10.05;;;;;;;14.79;100.00;98917.20;1736259;81;21469;-65
2021/08/31 06:46:22;;;;;;;16.42;13.05;;;;;;;15.01;100.00;98924.64;1718138;81;20958;-67
2021/08/31 06:48:49;;;;;;;26.87;16.02;;;;;;;15.12;100.00;98921.22;1731488;81;20927;-66
2021/08/31 06:51:16;;;;;;;17.12;14.15;;;;;;;15.38;100.00;98913.95;1767636;81;21003;-66
2021/08/31 06:53:43;;;;;;;16.10;14.18;;;;;;;15.52;100.00;98922.87;1762420;81;21012;-66
2021/08/31 06:56:10;;;;;;;15.25;13.65;;;;;;;15.65;100.00;98925.31;1753051;81;20965;-67
2021/08/31 06:58:37;;;;;;;17.32;15.53;;;;;;;15.89;100.00;98924.31;1724785;81;20951;-66
2021/08/31 07:01:04;;;;;;;17.05;13.35;;;;;;;16.26;100.00;98924.55;1759217;81;20963;-66
2021/08/31 07:03:32;;;;;;;22.65;13.08;;;;;;;16.34;100.00;98926.55;1767812;81;20900;-65
2021/08/31 07:05:59;;;;;;;16.45;13.05;;;;;;;16.27;100.00;98928.31;1766830;81;21119;-67
2021/08/31 07:08:26;;;;;;;14.70;11.83;;;;;;;16.71;100.00;98932.13;1753281;80;20995;-67
2021/08/31 07:10:53;;;;;;;12.03;10.72;;;;;;;17.53;100.00;98927.27;1753148;81;20984;-67
2021/08/31 07:13:22;;;;;;;10.35;7.47;;;;;;;17.86;100.00;98941.84;1753046;81;20994;-67
2021/08/31 07:15:48;;;;;;;13.10;10.45;;;;;;;17.76;100.00;98943.44;1753309;81;20928;-67
2021/08/31 07:18:15;;;;;;;12.55;8.33;;;;;;;17.76;100.00;98943.44;1753162;81;21122;-67
2021/08/31 07:20:43;;;;;;;9.90;8.48;;;;;;;18.18;100.00;98941.16;1752999;81;20975;-67
2021/08/31 07:23:11;;;;;;;11.35;10.10;;;;;;;18.21;100.00;98945.38;1742464;81;20960;-67
2021/08/31 07:25:38;;;;;;;8.48;7.58;;;;;;;18.32;100.00;98948.56;1735691;82;20933;-68
2021/08/31 07:28:05;;;;;;;8.98;8.00;;;;;;;18.61;100.00;98952.55;1748993;81;20943;-67
2021/08/31 07:30:31;;;;;;;11.38;8.43;;;;;;;18.33;100.00;98943.95;1704838;84;21181;-67
2021/08/31 07:32:58;;;;;;;8.85;7.97;;;;;;;18.58;100.00;98945.05;1733898;82;20979;-67
2021/08/31 07:35:25;;;;;;;7.90;7.20;;;;;;;19.20;100.00;98943.80;1734308;82;20960;-66
2021/08/31 07:37:52;;;;;;;7.83;7.00;;;;;;;19.42;100.00;98946.27;1737464;82;20877;-67
2021/08/31 07:40:19;;;;;;;7.83;6.20;;;;;;;19.21;100.00;98951.66;1704704;84;21258;-67
2021/08/31 07:42:45;;;;;;;8.33;6.75;;;;;;;19.04;100.00;98944.34;1731453;82;21111;-67
2021/08/31 07:45:13;;;;;;;6.97;6.37;;;;;;;19.09;100.00;98941.22;1716436;82;20821;-65
2021/08/31 07:47:39;;;;;;;7.80;7.03;;;;;;;19.34;100.00;98942.24;1682065;84;20977;-65
2021/08/31 07:50:07;;;;;;;10.00;6.60;;;;;;;19.03;100.00;98940.04;1698298;84;20932;-65
2021/08/31 07:52:34;;;;;;;6.70;6.15;;;;;;;18.82;100.00;98938.56;1701420;83;21413;-65
2021/08/31 07:55:05;;;;;;;6.33;5.72;;;;;;;19.24;100.00;98932.52;1676219;84;21136;-66
2021/08/31 07:57:33;;;;;;;9.78;6.03;;;;;;;19.54;100.00;98933.33;1675970;85;21484;-66
2021/08/31 07:59:59;;;;;;;6.47;5.20;;;;;;;19.29;100.00;98935.05;1649248;85;20984;-65
2021/08/31 08:02:26;;;;;;;8.53;6.80;;;;;;;19.69;100.00;98936.88;1676167;85;21011;-66
2021/08/31 08:04:58;;;;;;;5.67;5.17;;;;;;;19.79;100.00;98932.97;1676165;84;20995;-66
2021/08/31 08:07:21;;;;;;;5.22;4.70;;;;;;;19.96;100.00;98940.23;1675526;84;21223;-65
2021/08/31 08:09:48;;;;;;;6.15;4.40;;;;;;;20.15;100.00;98938.42;1675917;85;21042;-65
2021/08/31 08:12:14;;;;;;;4.87;4.30;;;;;;;20.67;100.00;98941.30;1676246;85;20888;-66
2021/08/31 08:14:42;;;;;;;4.92;4.53;;;;;;;20.84;100.00;98932.14;1676454;85;20932;-66
2021/08/31 08:17:08;;;;;;;6.33;2.95;;;;;;;21.15;100.00;98931.65;1676230;85;20928;-65
2021/08/31 08:19:35;;;;;;;3.60;2.95;;;;;;;20.70;100.00;98933.26;1676260;85;21172;-64
2021/08/31 08:22:02;;;;;;;4.33;3.25;;;;;;;20.32;100.00;98937.50;1675042;84;21363;-63
2021/08/31 08:24:28;;;;;;;7.42;4.30;;;;;;;20.28;100.00;98942.80;1712505;81;20940;-63
2021/08/31 08:26:58;;;;;;;6.40;3.17;;;;;;;20.23;100.00;98938.91;1741944;81;20967;-64
2021/08/31 08:29:23;;;;;;;4.15;2.90;;;;;;;20.01;100.00;98933.23;1724701;81;20969;-64
2021/08/31 08:31:49;;;;;;;3.92;2.87;;;;;;;20.22;100.00;98928.37;1701262;83;21216;-64
2021/08/31 08:34:16;;;;;;;7.83;3.75;;;;;;;20.40;100.00;98935.82;1704209;84;21236;-62
2021/08/31 08:36:42;;;;;;;6.03;3.40;;;;;;;20.82;100.00;98932.47;1704468;84;20987;-63
2021/08/31 08:39:09;;;;;;;4.62;3.12;;;;;;;21.30;100.00;98941.89;1684128;84;21035;-62
2021/08/31 08:41:35;;;;;;;5.85;2.80;;;;;;;20.86;100.00;98931.25;1655076;84;20987;-63
2021/08/31 08:44:03;;;;;;;6.23;4.03;;;;;;;20.39;100.00;98939.13;1702873;82;21194;-65
2021/08/31 08:46:30;;;;;;;3.12;2.67;;;;;;;20.22;100.00;98936.54;1702372;84;21442;-64
2021/08/31 08:49:35;;;;;;;3.52;2.75;;;;;;;19.78;100.00;98931.39;1702421;82;21488;-65
2021/08/31 08:52:03;;;;;;;2.80;2.12;;;;;;;20.16;100.00;98934.56;1702851;83;21397;-67
2021/08/31 08:54:29;;;;;;;2.42;1.95;;;;;;;20.73;100.00;98938.03;1702936;84;20989;-67
2021/08/31 08:56:57;;;;;;;1.70;1.45;;;;;;;20.73;100.00;98924.39;1702988;84;21112;-67
2021/08/31 08:59:23;;;;;;;3.80;1.85;;;;;;;20.96;100.00;98937.63;1702557;84;20964;-68
2021/08/31 09:01:53;;;;;;;6.35;1.60;;;;;;;21.11;100.00;98943.00;1702846;84;20998;-67
2021/08/31 09:04:22;;;;;;;2.98;1.70;;;;;;;20.83;100.00;98941.47;1702741;84;20972;-67
2021/08/31 09:06:49;;;;;;;6.35;2.27;;;;;;;20.37;100.00;98941.95;1698749;82;20994;-67
2021/08/31 09:09:15;;;;;;;2.30;1.85;;;;;;;20.35;100.00;98943.06;1720888;81;21845;-67
2021/08/31 09:11:47;;;;;;;1.95;1.82;;;;;;;20.31;100.00;98938.06;1747659;82;21064;-66
2021/08/31 09:14:21;;;;;;;1.82;1.60;;;;;;;20.02;100.00;98940.29;1747600;82;20968;-67
2021/08/31 09:17:01;;;;;;;2.10;1.30;;;;;;;19.92;100.00;98927.06;1683194;85;20952;-67
2021/08/31 09:19:35;;;;;;;4.40;1.70;;;;;;;20.14;100.00;98938.20;1741228;82;21078;-67
2021/08/31 09:22:16;;;;;;;2.65;1.70;;;;;;;20.48;100.00;98939.03;1702983;81;21109;-65
2021/08/31 09:24:59;;;;;;;2.72;1.55;;;;;;;20.81;97.78;98947.83;1702646;84;20876;-66
2021/08/31 09:27:36;;;;;;;1.47;1.37;;;;;;;21.26;96.29;98945.63;1716701;81;21458;-67
2021/08/31 09:30:25;;;;;;;1.42;1.32;;;;;;;21.47;96.32;98947.73;1711893;83;20893;-66
2021/08/31 09:33:07;;;;;;;4.40;1.77;;;;;;;21.35;94.70;98949.06;1697187;81;21090;-65
2021/08/31 09:35:40;;;;;;;1.82;1.12;;;;;;;21.71;90.31;98940.11;1753047;81;21443;-65
2021/08/31 09:38:09;;;;;;;1.82;1.27;;;;;;;21.58;90.12;98936.59;1704799;81;20983;-65
2021/08/31 09:40:45;;;;;;;3.45;2.67;;;;;;;21.33;93.66;98939.84;1702841;84;20976;-65
2021/08/31 09:43:17;;;;;;;3.60;2.37;;;;;;;21.73;88.53;98928.83;1702877;84;21382;-65
2021/08/31 09:45:46;;;;;;;2.25;1.65;;;;;;;21.79;89.36;98937.81;1702448;83;20951;-66
2021/08/31 09:48:16;;;;;;;2.12;1.65;;;;;;;22.24;88.86;98945.06;1696218;84;21130;-66
2021/08/31 09:50:48;;;;;;;3.65;1.47;;;;;;;22.18;87.11;98945.61;1702734;84;21319;-65
2021/08/31 09:53:26;;;;;;;1.70;1.57;;;;;;;22.13;84.64;98953.47;1725117;81;21291;-65
2021/08/31 09:56:07;;;;;;;3.45;1.70;;;;;;;21.58;87.65;98948.06;1702501;82;21086;-64
2021/08/31 09:58:36;;;;;;;5.00;1.65;;;;;;;21.25;90.00;98952.24;1702263;82;20884;-65
2021/08/31 10:01:03;;;;;;;4.65;1.67;;;;;;;21.27;88.09;98937.12;1702075;84;21747;-66
2021/08/31 10:03:30;;;;;;;4.85;1.60;;;;;;;21.41;84.47;98939.53;1702910;84;20884;-65
2021/08/31 10:06:00;;;;;;;1.52;1.40;;;;;;;21.96;86.55;98940.87;1702755;84;20892;-65
2021/08/31 10:08:33;;;;;;;2.90;1.80;;;;;;;22.38;84.44;98941.92;1702626;82;21024;-65
2021/08/31 10:11:01;;;;;;;4.20;1.32;;;;;;;22.10;83.18;98955.53;1702627;83;20972;-66
2021/08/31 10:13:28;;;;;;;2.65;1.30;;;;;;;22.17;82.63;98945.36;1702069;84;21130;-65
2021/08/31 10:15:56;;;;;;;1.87;1.67;;;;;;;21.22;85.41;98943.38;1702607;84;20938;-65
2021/08/31 10:18:26;;;;;;;2.08;1.92;;;;;;;21.02;88.94;98943.66;1702890;84;21090;-65
2021/08/31 10:21:02;;;;;;;1.65;1.55;;;;;;;20.49;91.39;98946.09;1702709;84;21390;-65
2021/08/31 10:23:43;;;;;;;2.20;1.52;;;;;;;20.65;91.75;98936.73;1717849;83;21446;-65
2021/08/31 10:26:34;;;;;;;1.85;1.25;;;;;;;20.79;87.46;98943.27;1728734;81;21134;-66
2021/08/31 10:29:21;;;;;;;1.65;1.52;;;;;;;20.89;84.87;98929.99;1746773;81;20959;-65
2021/08/31 10:31:53;;;;;;;2.05;1.75;;;;;;;21.26;86.71;98940.97;1725984;83;20979;-67
2021/08/31 10:34:39;;;;;;;2.15;2.05;;;;;;;21.17;84.90;98947.12;1698048;83;21415;-66
2021/08/31 10:37:10;;;;;;;2.58;1.90;;;;;;;21.09;85.60;98950.18;1689909;85;21339;-66
2021/08/31 10:39:56;;;;;;;3.35;2.20;;;;;;;20.72;88.55;98958.23;1691319;84;22433;-66
2021/08/31 10:42:37;;;;;;;2.45;2.25;;;;;;;20.84;87.69;98952.60;1720530;83;20953;-65
2021/08/31 10:45:08;;;;;;;2.20;2.00;;;;;;;20.96;87.58;98954.00;1720508;83;21474;-67
2021/08/31 10:47:39;;;;;;;2.08;1.95;;;;;;;21.05;86.66;98954.71;1716758;83;21032;-66
2021/08/31 10:50:10;;;;;;;2.30;2.10;;;;;;;20.85;86.75;98966.45;1697448;83;21011;-65
2021/08/31 10:52:48;;;;;;;2.40;2.20;;;;;;;20.57;89.86;98964.31;1720366;83;21678;-67
2021/08/31 10:55:29;;;;;;;2.40;2.20;;;;;;;20.23;94.35;98965.37;1720831;83;20924;-67
2021/08/31 10:58:08;;;;;;;4.03;2.30;;;;;;;20.35;95.53;98971.67;1695954;83;20968;-65
2021/08/31 11:00:43;;;;;;;3.58;2.08;;;;;;;21.02;91.81;98973.67;1700000;84;20976;-65
2021/08/31 11:03:10;;;;;;;6.83;2.37;;;;;;;20.90;87.95;98975.82;1718534;83;20929;-65
2021/08/31 11:05:36;;;;;;;4.25;2.30;;;;;;;20.92;86.44;98969.44;1699683;84;21101;-66
2021/08/31 11:08:09;;;;;;;3.58;2.05;;;;;;;20.97;86.15;98970.61;1718753;83;20968;-66
2021/08/31 11:10:42;;;;;;;4.58;1.85;;;;;;;21.10;87.24;98976.31;1700200;84;21453;-66
2021/08/31 11:13:20;;;;;;;3.47;1.72;;;;;;;21.25;86.86;98974.86;1710337;84;21000;-66
2021/08/31 11:15:47;;;;;;;2.20;2.00;;;;;;;21.34;87.50;98975.57;1706916;84;20976;-65
2021/08/31 11:18:17;;;;;;;2.03;1.73;;;;;;;22.09;87.01;98975.79;1683930;85;21056;-66
2021/08/31 11:20:47;;;;;;;5.95;2.10;;;;;;;22.09;87.01;98975.79;1683915;85;21456;-67
2021/08/31 11:23:20;;;;;;;2.20;2.00;;;;;;;22.63;78.37;98979.53;1685779;83;21439;-66